Steven M. Bryan — WDF2628 — position and weather

sailwx.info

Track history (hours):
 
Tides and Currents Weather Stations Pressure Air Temp Water Temp Dewpoint Dewpoint Depression Visibility Wind Speed Wind Dir Waves Ship Positions

Steven M. Bryan

Owner: Florida Marine Transporters, Inc., Mandeville, LA. More information available from US FCC via Universal Licensing System and Coast Guard Vessel Documentation Center.

Last reported at 2017-Sep-08 11:35 UTC. Time now 2017-Sep-23 07:20 UTC.
Position N 38°59' W 090°34'.
Warning: this ship's position is 14 days out of date.

Length 27 m; draft 9.6 m.

Type: Other ship. MMSI: 367430050.

Date/timePositionNaut miles runAvg speedWind from/ knotsBaromVisibWave heightAir tempDewpointWater temp
2017-Sep-08 11:35N 38°59' W 090°34'0 4.9
2017-Sep-08 11:30N 38°59' W 090°33'2 4.4
2017-Sep-08 11:00N 38°57' W 090°31'2 4.7
2017-Sep-08 10:30N 38°58' W 090°28'3 5.1
2017-Sep-08 10:00N 38°58' W 090°25'2 5.0
2017-Sep-08 09:30N 38°57' W 090°22'3 5.3
2017-Sep-08 09:00N 38°56' W 090°19'4 5.9
2017-Sep-08 08:23N 38°55' W 090°14'2 4.8
2017-Sep-08 08:00N 38°54' W 090°12'3 4.7
2017-Sep-08 07:27N 38°52' W 090°10'2 1.0
2017-Sep-08 05:41N 38°51' W 090°08'0 0.0
2017-Sep-08 04:47N 38°51' W 090°08'0 0.0
2017-Sep-08 04:20N 38°51' W 090°08'0 0.0
2017-Sep-08 03:26N 38°51' W 090°08'0 0.0
2017-Sep-08 02:45N 38°51' W 090°08'  
2017-Aug-31 00:59N 32°40' W 091°08'2 3.4
2017-Aug-31 00:19N 32°38' W 091°09'1 4.3
2017-Aug-31 00:01N 32°37' W 091°09'2 4.4
2017-Aug-30 23:31N 32°35' W 091°07'2 4.0
2017-Aug-30 23:01N 32°34' W 091°06'2 4.1
2017-Aug-30 22:31N 32°31' W 091°06'2 4.8
2017-Aug-30 22:01N 32°29' W 091°07'2 4.6
2017-Aug-30 21:31N 32°27' W 091°05'2 4.5
2017-Aug-30 21:01N 32°26' W 091°03'2 4.4
2017-Aug-30 20:31N 32°25' W 091°01'2 3.5
2017-Aug-30 20:01N 32°24' W 090°59'2 4.3
2017-Aug-30 19:31N 32°22' W 091°00'2 4.3
2017-Aug-30 19:01N 32°21' W 090°58'2 4.3
2017-Aug-30 18:31N 32°21' W 090°55'2 3.3
2017-Aug-30 18:01N 32°19' W 090°54'2 4.6
2017-Aug-30 17:31N 32°17' W 090°56'2 4.1
2017-Aug-30 17:01N 32°16' W 090°58'2 3.3
2017-Aug-30 16:30N 32°15' W 090°59'2 4.7
2017-Aug-30 16:01N 32°12' W 090°59'0 0.5
2017-Aug-30 15:31N 32°12' W 090°59'1 2.6
2017-Aug-30 15:00N 32°11' W 090°60'2 4.0
2017-Aug-30 14:31N 32°09' W 091°00'2 4.1
2017-Aug-30 14:00N 32°07' W 091°02'4 4.4
2017-Aug-30 13:11N 32°08' W 091°06'1 4.1
2017-Aug-30 13:00N 32°07' W 091°06'5 4.1
2017-Aug-30 11:47N 32°03' W 091°03'2 5.5
2017-Aug-30 11:21N 32°01' W 091°05'  
Track history (hours):
 
Tides and Currents Weather Stations Pressure Air Temp Water Temp Dewpoint Dewpoint Depression Visibility Wind Speed Wind Dir Waves Ship Positions

Steven M. Bryan

Owner: Florida Marine Transporters, Inc., Mandeville, LA. More information available from US FCC via Universal Licensing System and Coast Guard Vessel Documentation Center.

Last reported at 2017-Sep-08 11:35 UTC. Time now 2017-Sep-23 07:20 UTC.
Position N 38°59' W 090°34'.
Warning: this ship's position is 14 days out of date.

Length 27 m; draft 9.6 m.

Type: Other ship. MMSI: 367430050.

Date/timePositionNaut miles runAvg speedWind from/ knotsBaromVisibWave heightAir tempDewpointWater temp
2017-Sep-08 11:35N 38°59' W 090°34'0 4.9
2017-Sep-08 11:30N 38°59' W 090°33'2 4.4
2017-Sep-08 11:00N 38°57' W 090°31'2 4.7
2017-Sep-08 10:30N 38°58' W 090°28'3 5.1
2017-Sep-08 10:00N 38°58' W 090°25'2 5.0
2017-Sep-08 09:30N 38°57' W 090°22'3 5.3
2017-Sep-08 09:00N 38°56' W 090°19'4 5.9
2017-Sep-08 08:23N 38°55' W 090°14'2 4.8
2017-Sep-08 08:00N 38°54' W 090°12'3 4.7
2017-Sep-08 07:27N 38°52' W 090°10'2 1.0
2017-Sep-08 05:41N 38°51' W 090°08'0 0.0
2017-Sep-08 04:47N 38°51' W 090°08'0 0.0
2017-Sep-08 04:20N 38°51' W 090°08'0 0.0
2017-Sep-08 03:26N 38°51' W 090°08'0 0.0
2017-Sep-08 02:45N 38°51' W 090°08'  
2017-Aug-31 00:59N 32°40' W 091°08'2 3.4
2017-Aug-31 00:19N 32°38' W 091°09'1 4.3
2017-Aug-31 00:01N 32°37' W 091°09'2 4.4
2017-Aug-30 23:31N 32°35' W 091°07'2 4.0
2017-Aug-30 23:01N 32°34' W 091°06'2 4.1
2017-Aug-30 22:31N 32°31' W 091°06'2 4.8
2017-Aug-30 22:01N 32°29' W 091°07'2 4.6
2017-Aug-30 21:31N 32°27' W 091°05'2 4.5
2017-Aug-30 21:01N 32°26' W 091°03'2 4.4
2017-Aug-30 20:31N 32°25' W 091°01'2 3.5
2017-Aug-30 20:01N 32°24' W 090°59'2 4.3
2017-Aug-30 19:31N 32°22' W 091°00'2 4.3
2017-Aug-30 19:01N 32°21' W 090°58'2 4.3
2017-Aug-30 18:31N 32°21' W 090°55'2 3.3
2017-Aug-30 18:01N 32°19' W 090°54'2 4.6
2017-Aug-30 17:31N 32°17' W 090°56'2 4.1
2017-Aug-30 17:01N 32°16' W 090°58'2 3.3
2017-Aug-30 16:30N 32°15' W 090°59'2 4.7
2017-Aug-30 16:01N 32°12' W 090°59'0 0.5
2017-Aug-30 15:31N 32°12' W 090°59'1 2.6
2017-Aug-30 15:00N 32°11' W 090°60'2 4.0
2017-Aug-30 14:31N 32°09' W 091°00'2 4.1
2017-Aug-30 14:00N 32°07' W 091°02'4 4.4
2017-Aug-30 13:11N 32°08' W 091°06'1 4.1
2017-Aug-30 13:00N 32°07' W 091°06'5 4.1
2017-Aug-30 11:47N 32°03' W 091°03'2 5.5
2017-Aug-30 11:21N 32°01' W 091°05'  

Dump ship's entire track history